sensor_id;sensor_type;location;lat;lon;timestamp;P1;durP1;ratioP1;P2;durP2;ratioP2
1308;SDS011;647;48.840;9.314;2022-10-20T00:00:16;61.57;;;4.70;;
1308;SDS011;647;48.840;9.314;2022-10-20T00:02:44;60.50;;;5.27;;
1308;SDS011;647;48.840;9.314;2022-10-20T00:05:12;61.77;;;5.23;;
1308;SDS011;647;48.840;9.314;2022-10-20T00:07:39;61.67;;;5.93;;
1308;SDS011;647;48.840;9.314;2022-10-20T00:10:06;62.17;;;4.60;;
1308;SDS011;647;48.840;9.314;2022-10-20T00:12:34;59.97;;;4.00;;
1308;SDS011;647;48.840;9.314;2022-10-20T00:15:01;65.00;;;6.53;;
1308;SDS011;647;48.840;9.314;2022-10-20T00:17:28;59.00;;;4.00;;
1308;SDS011;647;48.840;9.314;2022-10-20T00:19:55;61.50;;;4.97;;
1308;SDS011;647;48.840;9.314;2022-10-20T00:22:23;60.13;;;4.53;;
1308;SDS011;647;48.840;9.314;2022-10-20T00:24:51;62.07;;;4.77;;
1308;SDS011;647;48.840;9.314;2022-10-20T00:27:18;60.47;;;5.10;;
1308;SDS011;647;48.840;9.314;2022-10-20T00:29:46;62.27;;;5.43;;
1308;SDS011;647;48.840;9.314;2022-10-20T00:32:13;61.50;;;4.90;;
1308;SDS011;647;48.840;9.314;2022-10-20T00:34:40;60.20;;;4.30;;
1308;SDS011;647;48.840;9.314;2022-10-20T00:37:07;62.87;;;5.30;;
1308;SDS011;647;48.840;9.314;2022-10-20T00:39:36;59.90;;;4.40;;
1308;SDS011;647;48.840;9.314;2022-10-20T00:42:03;61.83;;;4.97;;
1308;SDS011;647;48.840;9.314;2022-10-20T00:44:47;62.07;;;5.60;;
1308;SDS011;647;48.840;9.314;2022-10-20T00:47:15;62.17;;;4.70;;
1308;SDS011;647;48.840;9.314;2022-10-20T00:49:43;59.57;;;4.30;;
1308;SDS011;647;48.840;9.314;2022-10-20T00:52:10;58.80;;;3.70;;
1308;SDS011;647;48.840;9.314;2022-10-20T00:54:39;62.67;;;5.30;;
1308;SDS011;647;48.840;9.314;2022-10-20T00:57:06;61.30;;;4.90;;
1308;SDS011;647;48.840;9.314;2022-10-20T00:59:34;64.00;;;5.10;;
1308;SDS011;647;48.840;9.314;2022-10-20T01:02:02;61.47;;;5.30;;
1308;SDS011;647;48.840;9.314;2022-10-20T01:04:31;63.07;;;4.27;;
1308;SDS011;647;48.840;9.314;2022-10-20T01:06:58;62.60;;;4.67;;
1308;SDS011;647;48.840;9.314;2022-10-20T01:09:26;61.03;;;4.67;;
1308;SDS011;647;48.840;9.314;2022-10-20T01:11:56;61.00;;;5.57;;
1308;SDS011;647;48.840;9.314;2022-10-20T01:14:28;65.37;;;5.57;;
1308;SDS011;647;48.840;9.314;2022-10-20T01:17:00;60.70;;;4.83;;
1308;SDS011;647;48.840;9.314;2022-10-20T01:19:56;62.07;;;4.80;;
1308;SDS011;647;48.840;9.314;2022-10-20T01:22:35;61.87;;;6.07;;
1308;SDS011;647;48.840;9.314;2022-10-20T01:25:13;58.83;;;3.40;;
1308;SDS011;647;48.840;9.314;2022-10-20T01:27:43;58.73;;;3.57;;
1308;SDS011;647;48.840;9.314;2022-10-20T01:30:11;60.77;;;5.00;;
1308;SDS011;647;48.840;9.314;2022-10-20T01:32:48;60.57;;;5.63;;
1308;SDS011;647;48.840;9.314;2022-10-20T01:35:20;61.73;;;5.00;;
1308;SDS011;647;48.840;9.314;2022-10-20T01:37:50;60.27;;;3.40;;
1308;SDS011;647;48.840;9.314;2022-10-20T01:40:19;59.47;;;3.87;;
1308;SDS011;647;48.840;9.314;2022-10-20T01:42:49;62.00;;;5.53;;
1308;SDS011;647;48.840;9.314;2022-10-20T01:45:18;61.07;;;4.03;;
1308;SDS011;647;48.840;9.314;2022-10-20T01:47:46;61.40;;;5.60;;
1308;SDS011;647;48.840;9.314;2022-10-20T01:50:14;60.17;;;4.80;;
1308;SDS011;647;48.840;9.314;2022-10-20T01:52:43;60.00;;;4.53;;
1308;SDS011;647;48.840;9.314;2022-10-20T01:55:10;61.13;;;5.13;;
1308;SDS011;647;48.840;9.314;2022-10-20T01:57:41;61.20;;;5.27;;
1308;SDS011;647;48.840;9.314;2022-10-20T02:00:12;60.17;;;4.30;;
1308;SDS011;647;48.840;9.314;2022-10-20T02:02:47;61.60;;;4.83;;
1308;SDS011;647;48.840;9.314;2022-10-20T02:05:19;60.57;;;4.23;;
1308;SDS011;647;48.840;9.314;2022-10-20T02:07:49;68.10;;;5.30;;
1308;SDS011;647;48.840;9.314;2022-10-20T02:10:19;59.70;;;3.37;;
1308;SDS011;647;48.840;9.314;2022-10-20T02:12:48;60.97;;;5.30;;
1308;SDS011;647;48.840;9.314;2022-10-20T02:15:18;60.20;;;4.27;;
1308;SDS011;647;48.840;9.314;2022-10-20T02:17:48;61.73;;;5.00;;
1308;SDS011;647;48.840;9.314;2022-10-20T02:20:17;60.23;;;5.10;;
1308;SDS011;647;48.840;9.314;2022-10-20T02:22:45;62.43;;;5.10;;
1308;SDS011;647;48.840;9.314;2022-10-20T02:25:13;60.60;;;5.20;;
1308;SDS011;647;48.840;9.314;2022-10-20T02:27:41;61.70;;;5.33;;
1308;SDS011;647;48.840;9.314;2022-10-20T02:30:11;75.13;;;6.83;;
1308;SDS011;647;48.840;9.314;2022-10-20T02:32:40;60.57;;;5.27;;
1308;SDS011;647;48.840;9.314;2022-10-20T02:35:08;59.73;;;3.90;;
1308;SDS011;647;48.840;9.314;2022-10-20T02:37:36;62.63;;;4.93;;
1308;SDS011;647;48.840;9.314;2022-10-20T02:40:03;60.10;;;4.63;;
1308;SDS011;647;48.840;9.314;2022-10-20T02:42:31;62.97;;;5.23;;
1308;SDS011;647;48.840;9.314;2022-10-20T02:44:58;61.93;;;6.50;;
1308;SDS011;647;48.840;9.314;2022-10-20T02:47:25;59.80;;;4.53;;
1308;SDS011;647;48.840;9.314;2022-10-20T02:49:53;60.30;;;3.80;;
1308;SDS011;647;48.840;9.314;2022-10-20T02:52:20;61.20;;;5.90;;
1308;SDS011;647;48.840;9.314;2022-10-20T02:54:47;62.87;;;7.47;;
1308;SDS011;647;48.840;9.314;2022-10-20T02:57:14;62.30;;;4.80;;
1308;SDS011;647;48.840;9.314;2022-10-20T02:59:41;59.20;;;3.87;;
1308;SDS011;647;48.840;9.314;2022-10-20T03:02:09;61.97;;;6.10;;
1308;SDS011;647;48.840;9.314;2022-10-20T03:04:36;61.87;;;4.90;;
1308;SDS011;647;48.840;9.314;2022-10-20T03:07:04;62.10;;;6.00;;
1308;SDS011;647;48.840;9.314;2022-10-20T03:09:31;61.17;;;5.23;;
1308;SDS011;647;48.840;9.314;2022-10-20T03:11:58;60.77;;;4.87;;
1308;SDS011;647;48.840;9.314;2022-10-20T03:14:25;61.67;;;6.30;;
1308;SDS011;647;48.840;9.314;2022-10-20T03:16:52;62.10;;;4.83;;
1308;SDS011;647;48.840;9.314;2022-10-20T03:19:20;59.80;;;4.73;;
1308;SDS011;647;48.840;9.314;2022-10-20T03:21:47;60.90;;;4.33;;
1308;SDS011;647;48.840;9.314;2022-10-20T03:24:15;63.03;;;4.53;;
1308;SDS011;647;48.840;9.314;2022-10-20T03:26:42;60.40;;;4.13;;
1308;SDS011;647;48.840;9.314;2022-10-20T03:29:10;58.90;;;3.53;;
1308;SDS011;647;48.840;9.314;2022-10-20T03:31:37;60.97;;;4.83;;
1308;SDS011;647;48.840;9.314;2022-10-20T03:34:04;63.93;;;4.83;;
1308;SDS011;647;48.840;9.314;2022-10-20T03:36:31;61.90;;;5.17;;
1308;SDS011;647;48.840;9.314;2022-10-20T03:38:58;63.27;;;5.43;;
1308;SDS011;647;48.840;9.314;2022-10-20T03:41:26;61.17;;;5.43;;
1308;SDS011;647;48.840;9.314;2022-10-20T03:43:53;61.73;;;4.90;;
1308;SDS011;647;48.840;9.314;2022-10-20T03:46:20;61.57;;;6.03;;
1308;SDS011;647;48.840;9.314;2022-10-20T03:48:48;60.90;;;5.27;;
1308;SDS011;647;48.840;9.314;2022-10-20T03:51:15;60.57;;;4.73;;
1308;SDS011;647;48.840;9.314;2022-10-20T03:53:42;64.40;;;5.67;;
1308;SDS011;647;48.840;9.314;2022-10-20T03:56:09;64.30;;;6.23;;
1308;SDS011;647;48.840;9.314;2022-10-20T03:58:38;62.87;;;4.30;;
1308;SDS011;647;48.840;9.314;2022-10-20T04:01:05;59.93;;;4.13;;
1308;SDS011;647;48.840;9.314;2022-10-20T04:03:34;61.10;;;4.90;;
1308;SDS011;647;48.840;9.314;2022-10-20T04:06:01;61.87;;;5.80;;
1308;SDS011;647;48.840;9.314;2022-10-20T04:08:28;62.57;;;5.50;;
1308;SDS011;647;48.840;9.314;2022-10-20T04:10:56;70.00;;;5.93;;
1308;SDS011;647;48.840;9.314;2022-10-20T04:13:23;69.30;;;7.70;;
1308;SDS011;647;48.840;9.314;2022-10-20T04:15:51;63.03;;;4.87;;
1308;SDS011;647;48.840;9.314;2022-10-20T04:18:18;61.27;;;4.90;;
1308;SDS011;647;48.840;9.314;2022-10-20T04:20:46;60.00;;;4.17;;
1308;SDS011;647;48.840;9.314;2022-10-20T04:23:13;61.47;;;5.43;;
1308;SDS011;647;48.840;9.314;2022-10-20T04:25:41;62.87;;;6.70;;
1308;SDS011;647;48.840;9.314;2022-10-20T04:28:11;62.97;;;5.03;;
1308;SDS011;647;48.840;9.314;2022-10-20T04:30:38;60.70;;;4.10;;
1308;SDS011;647;48.840;9.314;2022-10-20T04:33:07;62.20;;;6.27;;
1308;SDS011;647;48.840;9.314;2022-10-20T04:35:34;81.30;;;6.10;;
1308;SDS011;647;48.840;9.314;2022-10-20T04:38:01;60.10;;;4.47;;
1308;SDS011;647;48.840;9.314;2022-10-20T04:40:28;62.47;;;5.07;;
1308;SDS011;647;48.840;9.314;2022-10-20T04:42:57;61.80;;;5.80;;
1308;SDS011;647;48.840;9.314;2022-10-20T04:45:24;62.77;;;4.90;;
1308;SDS011;647;48.840;9.314;2022-10-20T04:47:52;61.83;;;4.07;;
1308;SDS011;647;48.840;9.314;2022-10-20T04:50:21;63.90;;;4.73;;
1308;SDS011;647;48.840;9.314;2022-10-20T04:52:48;61.53;;;6.03;;
1308;SDS011;647;48.840;9.314;2022-10-20T04:55:15;61.93;;;4.70;;
1308;SDS011;647;48.840;9.314;2022-10-20T04:57:42;62.47;;;4.17;;
1308;SDS011;647;48.840;9.314;2022-10-20T05:00:10;60.83;;;5.23;;
1308;SDS011;647;48.840;9.314;2022-10-20T05:02:37;59.00;;;3.90;;
1308;SDS011;647;48.840;9.314;2022-10-20T05:05:04;62.83;;;4.97;;
1308;SDS011;647;48.840;9.314;2022-10-20T05:07:33;60.07;;;4.20;;
1308;SDS011;647;48.840;9.314;2022-10-20T05:10:00;60.20;;;4.53;;
1308;SDS011;647;48.840;9.314;2022-10-20T05:12:27;61.70;;;4.07;;
1308;SDS011;647;48.840;9.314;2022-10-20T05:14:54;59.87;;;4.30;;
1308;SDS011;647;48.840;9.314;2022-10-20T05:17:21;64.50;;;5.47;;
1308;SDS011;647;48.840;9.314;2022-10-20T05:19:48;60.77;;;5.60;;
1308;SDS011;647;48.840;9.314;2022-10-20T05:22:15;64.20;;;5.53;;
1308;SDS011;647;48.840;9.314;2022-10-20T05:24:44;61.07;;;4.27;;
1308;SDS011;647;48.840;9.314;2022-10-20T05:27:11;61.20;;;4.60;;
1308;SDS011;647;48.840;9.314;2022-10-20T05:29:38;62.07;;;4.57;;
1308;SDS011;647;48.840;9.314;2022-10-20T05:32:05;66.23;;;5.47;;
1308;SDS011;647;48.840;9.314;2022-10-20T05:34:32;60.07;;;4.93;;
1308;SDS011;647;48.840;9.314;2022-10-20T05:36:59;60.87;;;4.93;;
1308;SDS011;647;48.840;9.314;2022-10-20T05:39:26;63.00;;;5.20;;
1308;SDS011;647;48.840;9.314;2022-10-20T05:41:55;59.87;;;4.73;;
1308;SDS011;647;48.840;9.314;2022-10-20T05:44:22;61.10;;;4.40;;
1308;SDS011;647;48.840;9.314;2022-10-20T05:46:49;61.30;;;5.10;;
1308;SDS011;647;48.840;9.314;2022-10-20T05:49:16;61.60;;;4.37;;
1308;SDS011;647;48.840;9.314;2022-10-20T05:51:44;62.13;;;5.73;;
1308;SDS011;647;48.840;9.314;2022-10-20T05:54:12;62.37;;;5.70;;
1308;SDS011;647;48.840;9.314;2022-10-20T05:56:39;61.80;;;5.13;;
1308;SDS011;647;48.840;9.314;2022-10-20T05:59:08;65.47;;;6.73;;
1308;SDS011;647;48.840;9.314;2022-10-20T06:01:35;63.63;;;7.37;;
1308;SDS011;647;48.840;9.314;2022-10-20T06:04:12;60.40;;;4.70;;
1308;SDS011;647;48.840;9.314;2022-10-20T06:06:39;60.30;;;4.97;;
1308;SDS011;647;48.840;9.314;2022-10-20T06:09:07;60.37;;;4.33;;
1308;SDS011;647;48.840;9.314;2022-10-20T06:11:34;60.30;;;5.33;;
1308;SDS011;647;48.840;9.314;2022-10-20T06:14:02;60.27;;;4.80;;
1308;SDS011;647;48.840;9.314;2022-10-20T06:16:31;59.60;;;4.00;;
1308;SDS011;647;48.840;9.314;2022-10-20T06:18:58;63.50;;;5.93;;
1308;SDS011;647;48.840;9.314;2022-10-20T06:21:26;61.57;;;6.20;;
1308;SDS011;647;48.840;9.314;2022-10-20T06:23:53;59.70;;;4.27;;
1308;SDS011;647;48.840;9.314;2022-10-20T06:26:21;61.47;;;5.43;;
1308;SDS011;647;48.840;9.314;2022-10-20T06:28:49;63.30;;;6.20;;
1308;SDS011;647;48.840;9.314;2022-10-20T06:31:17;60.70;;;4.30;;
1308;SDS011;647;48.840;9.314;2022-10-20T06:33:46;61.43;;;5.60;;
1308;SDS011;647;48.840;9.314;2022-10-20T06:36:13;61.07;;;4.63;;
1308;SDS011;647;48.840;9.314;2022-10-20T06:38:40;63.03;;;6.00;;
1308;SDS011;647;48.840;9.314;2022-10-20T06:41:08;60.70;;;6.27;;
1308;SDS011;647;48.840;9.314;2022-10-20T06:43:36;62.87;;;4.40;;
1308;SDS011;647;48.840;9.314;2022-10-20T06:46:03;67.13;;;6.20;;
1308;SDS011;647;48.840;9.314;2022-10-20T06:48:31;61.10;;;6.20;;
1308;SDS011;647;48.840;9.314;2022-10-20T06:51:00;63.37;;;6.70;;
1308;SDS011;647;48.840;9.314;2022-10-20T06:53:27;61.87;;;6.90;;
1308;SDS011;647;48.840;9.314;2022-10-20T06:55:55;60.57;;;5.30;;
1308;SDS011;647;48.840;9.314;2022-10-20T06:58:23;61.30;;;5.27;;
1308;SDS011;647;48.840;9.314;2022-10-20T07:00:56;61.20;;;5.20;;
1308;SDS011;647;48.840;9.314;2022-10-20T07:03:24;62.93;;;6.10;;
1308;SDS011;647;48.840;9.314;2022-10-20T07:05:51;61.77;;;5.03;;
1308;SDS011;647;48.840;9.314;2022-10-20T07:08:20;59.30;;;3.97;;
1308;SDS011;647;48.840;9.314;2022-10-20T07:10:47;60.40;;;5.37;;
1308;SDS011;647;48.840;9.314;2022-10-20T07:13:22;64.40;;;5.23;;
1308;SDS011;647;48.840;9.314;2022-10-20T07:15:51;61.70;;;6.23;;
1308;SDS011;647;48.840;9.314;2022-10-20T07:18:18;60.80;;;5.33;;
1308;SDS011;647;48.840;9.314;2022-10-20T07:20:45;60.77;;;4.77;;
1308;SDS011;647;48.840;9.314;2022-10-20T07:23:12;60.67;;;4.90;;
1308;SDS011;647;48.840;9.314;2022-10-20T07:25:41;59.10;;;4.33;;
1308;SDS011;647;48.840;9.314;2022-10-20T07:28:08;60.40;;;4.30;;
1308;SDS011;647;48.840;9.314;2022-10-20T07:30:36;62.90;;;4.90;;
1308;SDS011;647;48.840;9.314;2022-10-20T07:33:04;60.97;;;5.00;;
1308;SDS011;647;48.840;9.314;2022-10-20T07:35:31;60.67;;;5.37;;
1308;SDS011;647;48.840;9.314;2022-10-20T07:37:59;61.97;;;5.40;;
1308;SDS011;647;48.840;9.314;2022-10-20T07:40:26;61.97;;;5.20;;
1308;SDS011;647;48.840;9.314;2022-10-20T07:42:54;61.50;;;4.77;;
1308;SDS011;647;48.840;9.314;2022-10-20T07:45:21;59.80;;;3.83;;
1308;SDS011;647;48.840;9.314;2022-10-20T07:47:48;59.40;;;4.47;;
1308;SDS011;647;48.840;9.314;2022-10-20T07:50:16;60.67;;;5.47;;
1308;SDS011;647;48.840;9.314;2022-10-20T07:52:43;63.90;;;4.63;;
1308;SDS011;647;48.840;9.314;2022-10-20T07:55:10;60.20;;;4.57;;
1308;SDS011;647;48.840;9.314;2022-10-20T07:57:37;59.30;;;4.00;;
1308;SDS011;647;48.840;9.314;2022-10-20T08:00:06;60.30;;;4.00;;
1308;SDS011;647;48.840;9.314;2022-10-20T08:02:33;59.10;;;3.83;;
1308;SDS011;647;48.840;9.314;2022-10-20T08:05:00;59.57;;;3.90;;
1308;SDS011;647;48.840;9.314;2022-10-20T08:07:28;59.53;;;4.33;;
1308;SDS011;647;48.840;9.314;2022-10-20T08:09:55;61.10;;;4.60;;
1308;SDS011;647;48.840;9.314;2022-10-20T08:12:22;59.10;;;3.93;;
1308;SDS011;647;48.840;9.314;2022-10-20T08:14:49;61.43;;;4.60;;
1308;SDS011;647;48.840;9.314;2022-10-20T08:17:17;60.00;;;4.20;;
1308;SDS011;647;48.840;9.314;2022-10-20T08:19:44;58.60;;;3.70;;
1308;SDS011;647;48.840;9.314;2022-10-20T08:22:12;61.07;;;4.33;;
1308;SDS011;647;48.840;9.314;2022-10-20T08:24:40;58.87;;;4.13;;
1308;SDS011;647;48.840;9.314;2022-10-20T08:27:07;60.80;;;4.10;;
1308;SDS011;647;48.840;9.314;2022-10-20T08:29:34;59.00;;;3.83;;
1308;SDS011;647;48.840;9.314;2022-10-20T08:32:01;58.80;;;3.50;;
1308;SDS011;647;48.840;9.314;2022-10-20T08:34:30;59.13;;;3.97;;
1308;SDS011;647;48.840;9.314;2022-10-20T08:36:57;58.60;;;3.67;;
1308;SDS011;647;48.840;9.314;2022-10-20T08:39:24;60.57;;;4.83;;
1308;SDS011;647;48.840;9.314;2022-10-20T08:41:52;59.47;;;4.30;;
1308;SDS011;647;48.840;9.314;2022-10-20T08:44:21;60.50;;;4.50;;
1308;SDS011;647;48.840;9.314;2022-10-20T08:46:49;59.10;;;3.90;;
1308;SDS011;647;48.840;9.314;2022-10-20T08:49:19;61.90;;;3.73;;
1308;SDS011;647;48.840;9.314;2022-10-20T08:51:48;60.20;;;3.80;;
1308;SDS011;647;48.840;9.314;2022-10-20T08:54:16;58.47;;;3.20;;
1308;SDS011;647;48.840;9.314;2022-10-20T08:56:44;58.47;;;3.40;;
1308;SDS011;647;48.840;9.314;2022-10-20T08:59:18;59.97;;;3.90;;
1308;SDS011;647;48.840;9.314;2022-10-20T09:01:47;58.80;;;3.63;;
1308;SDS011;647;48.840;9.314;2022-10-20T09:04:15;60.30;;;4.33;;
1308;SDS011;647;48.840;9.314;2022-10-20T09:06:44;58.90;;;3.70;;
1308;SDS011;647;48.840;9.314;2022-10-20T09:09:14;59.13;;;3.57;;
1308;SDS011;647;48.840;9.314;2022-10-20T09:11:42;59.40;;;4.17;;
1308;SDS011;647;48.840;9.314;2022-10-20T09:14:10;58.23;;;3.70;;
1308;SDS011;647;48.840;9.314;2022-10-20T09:16:38;59.80;;;4.03;;
1308;SDS011;647;48.840;9.314;2022-10-20T09:19:09;61.13;;;4.50;;
1308;SDS011;647;48.840;9.314;2022-10-20T09:21:39;58.80;;;3.97;;
1308;SDS011;647;48.840;9.314;2022-10-20T09:24:07;59.00;;;3.20;;
1308;SDS011;647;48.840;9.314;2022-10-20T09:26:37;58.50;;;3.07;;
1308;SDS011;647;48.840;9.314;2022-10-20T09:29:05;58.90;;;3.67;;
1308;SDS011;647;48.840;9.314;2022-10-20T09:31:33;58.90;;;3.40;;
1308;SDS011;647;48.840;9.314;2022-10-20T09:34:02;59.00;;;3.40;;
1308;SDS011;647;48.840;9.314;2022-10-20T09:36:45;58.70;;;3.20;;
1308;SDS011;647;48.840;9.314;2022-10-20T09:39:16;59.57;;;3.77;;
1308;SDS011;647;48.840;9.314;2022-10-20T09:41:45;58.23;;;3.10;;
1308;SDS011;647;48.840;9.314;2022-10-20T09:44:13;58.80;;;2.80;;
1308;SDS011;647;48.840;9.314;2022-10-20T09:46:47;58.87;;;3.03;;
1308;SDS011;647;48.840;9.314;2022-10-20T09:49:21;59.37;;;2.80;;
1308;SDS011;647;48.840;9.314;2022-10-20T09:51:48;58.20;;;2.77;;
1308;SDS011;647;48.840;9.314;2022-10-20T09:54:16;59.17;;;3.37;;
1308;SDS011;647;48.840;9.314;2022-10-20T09:56:45;58.10;;;2.73;;
1308;SDS011;647;48.840;9.314;2022-10-20T09:59:17;58.60;;;3.07;;
1308;SDS011;647;48.840;9.314;2022-10-20T10:01:52;57.47;;;2.60;;
1308;SDS011;647;48.840;9.314;2022-10-20T10:04:28;58.27;;;3.00;;
1308;SDS011;647;48.840;9.314;2022-10-20T10:06:56;58.70;;;3.20;;
1308;SDS011;647;48.840;9.314;2022-10-20T10:09:24;57.57;;;2.57;;
1308;SDS011;647;48.840;9.314;2022-10-20T10:11:57;59.97;;;2.90;;
1308;SDS011;647;48.840;9.314;2022-10-20T10:14:25;58.00;;;2.47;;
1308;SDS011;647;48.840;9.314;2022-10-20T10:16:52;58.37;;;3.00;;
1308;SDS011;647;48.840;9.314;2022-10-20T10:19:22;58.30;;;3.13;;
1308;SDS011;647;48.840;9.314;2022-10-20T10:21:51;69.33;;;3.23;;
1308;SDS011;647;48.840;9.314;2022-10-20T10:24:35;59.07;;;2.90;;
1308;SDS011;647;48.840;9.314;2022-10-20T10:27:08;57.83;;;2.63;;
1308;SDS011;647;48.840;9.314;2022-10-20T10:29:44;58.27;;;2.67;;
1308;SDS011;647;48.840;9.314;2022-10-20T10:32:13;58.60;;;3.20;;
1308;SDS011;647;48.840;9.314;2022-10-20T10:37:22;58.23;;;3.00;;
1308;SDS011;647;48.840;9.314;2022-10-20T10:39:49;58.03;;;2.50;;
1308;SDS011;647;48.840;9.314;2022-10-20T10:45:02;57.90;;;2.70;;
1308;SDS011;647;48.840;9.314;2022-10-20T10:47:41;57.87;;;2.67;;
1308;SDS011;647;48.840;9.314;2022-10-20T10:50:16;57.93;;;2.60;;
1308;SDS011;647;48.840;9.314;2022-10-20T10:52:50;58.03;;;2.90;;
1308;SDS011;647;48.840;9.314;2022-10-20T10:55:20;58.50;;;3.20;;
1308;SDS011;647;48.840;9.314;2022-10-20T10:57:54;57.67;;;2.80;;
1308;SDS011;647;48.840;9.314;2022-10-20T11:00:29;58.00;;;2.50;;
1308;SDS011;647;48.840;9.314;2022-10-20T11:02:59;57.63;;;2.70;;
1308;SDS011;647;48.840;9.314;2022-10-20T11:05:39;59.77;;;3.10;;
1308;SDS011;647;48.840;9.314;2022-10-20T11:08:13;58.07;;;2.83;;
1308;SDS011;647;48.840;9.314;2022-10-20T11:10:46;60.17;;;2.80;;
1308;SDS011;647;48.840;9.314;2022-10-20T11:13:24;58.20;;;2.40;;
1308;SDS011;647;48.840;9.314;2022-10-20T11:16:00;57.97;;;2.93;;
1308;SDS011;647;48.840;9.314;2022-10-20T11:18:33;57.97;;;3.13;;
1308;SDS011;647;48.840;9.314;2022-10-20T11:21:07;58.60;;;3.00;;
1308;SDS011;647;48.840;9.314;2022-10-20T11:23:41;58.83;;;3.17;;
1308;SDS011;647;48.840;9.314;2022-10-20T11:26:12;59.17;;;3.47;;
1308;SDS011;647;48.840;9.314;2022-10-20T11:28:44;58.17;;;2.73;;
1308;SDS011;647;48.840;9.314;2022-10-20T11:31:18;59.57;;;3.33;;
1308;SDS011;647;48.840;9.314;2022-10-20T11:33:48;58.07;;;2.80;;
1308;SDS011;647;48.840;9.314;2022-10-20T11:36:18;59.13;;;3.50;;
1308;SDS011;647;48.840;9.314;2022-10-20T11:38:49;59.37;;;3.43;;
1308;SDS011;647;48.840;9.314;2022-10-20T11:41:17;58.17;;;2.93;;
1308;SDS011;647;48.840;9.314;2022-10-20T11:43:46;57.97;;;2.83;;
1308;SDS011;647;48.840;9.314;2022-10-20T11:46:17;59.00;;;2.90;;
1308;SDS011;647;48.840;9.314;2022-10-20T11:48:48;58.67;;;2.93;;
1308;SDS011;647;48.840;9.314;2022-10-20T11:51:22;58.67;;;2.57;;
1308;SDS011;647;48.840;9.314;2022-10-20T11:54:03;58.80;;;3.13;;
1308;SDS011;647;48.840;9.314;2022-10-20T12:02:17;58.97;;;3.33;;
1308;SDS011;647;48.840;9.314;2022-10-20T12:04:59;60.60;;;3.53;;
1308;SDS011;647;48.840;9.314;2022-10-20T12:07:46;59.07;;;2.90;;
1308;SDS011;647;48.840;9.314;2022-10-20T12:10:24;58.00;;;3.10;;
1308;SDS011;647;48.840;9.314;2022-10-20T12:12:58;58.27;;;3.17;;
1308;SDS011;647;48.840;9.314;2022-10-20T12:15:27;59.73;;;3.83;;
1308;SDS011;647;48.840;9.314;2022-10-20T12:17:58;59.03;;;2.80;;
1308;SDS011;647;48.840;9.314;2022-10-20T12:20:48;58.70;;;3.43;;
1308;SDS011;647;48.840;9.314;2022-10-20T12:26:01;58.40;;;3.00;;
1308;SDS011;647;48.840;9.314;2022-10-20T12:28:31;58.90;;;3.63;;
1308;SDS011;647;48.840;9.314;2022-10-20T12:30:59;59.17;;;3.10;;
1308;SDS011;647;48.840;9.314;2022-10-20T12:33:35;58.37;;;3.20;;
1308;SDS011;647;48.840;9.314;2022-10-20T12:36:23;59.50;;;3.20;;
1308;SDS011;647;48.840;9.314;2022-10-20T12:38:52;58.80;;;3.50;;
1308;SDS011;647;48.840;9.314;2022-10-20T12:41:24;58.60;;;3.30;;
1308;SDS011;647;48.840;9.314;2022-10-20T12:43:52;59.33;;;4.00;;
1308;SDS011;647;48.840;9.314;2022-10-20T12:46:21;61.90;;;3.27;;
1308;SDS011;647;48.840;9.314;2022-10-20T12:48:51;59.07;;;3.97;;
1308;SDS011;647;48.840;9.314;2022-10-20T12:51:34;58.80;;;3.30;;
1308;SDS011;647;48.840;9.314;2022-10-20T12:54:03;59.90;;;3.30;;
1308;SDS011;647;48.840;9.314;2022-10-20T12:56:32;59.00;;;3.60;;
1308;SDS011;647;48.840;9.314;2022-10-20T13:04:52;59.03;;;3.50;;
1308;SDS011;647;48.840;9.314;2022-10-20T13:12:44;59.50;;;3.97;;
1308;SDS011;647;48.840;9.314;2022-10-20T13:15:11;59.20;;;3.77;;
1308;SDS011;647;48.840;9.314;2022-10-20T13:17:47;59.33;;;3.20;;
1308;SDS011;647;48.840;9.314;2022-10-20T13:20:19;58.80;;;3.20;;
1308;SDS011;647;48.840;9.314;2022-10-20T13:22:48;58.90;;;3.47;;
1308;SDS011;647;48.840;9.314;2022-10-20T13:25:33;58.83;;;3.40;;
1308;SDS011;647;48.840;9.314;2022-10-20T13:28:02;58.80;;;3.53;;
1308;SDS011;647;48.840;9.314;2022-10-20T13:30:30;59.70;;;3.80;;
1308;SDS011;647;48.840;9.314;2022-10-20T13:32:58;59.20;;;3.50;;
1308;SDS011;647;48.840;9.314;2022-10-20T13:35:31;58.60;;;3.40;;
1308;SDS011;647;48.840;9.314;2022-10-20T13:38:00;59.13;;;3.87;;
1308;SDS011;647;48.840;9.314;2022-10-20T13:40:34;60.80;;;4.47;;
1308;SDS011;647;48.840;9.314;2022-10-20T13:43:06;58.97;;;3.57;;
1308;SDS011;647;48.840;9.314;2022-10-20T13:45:38;58.90;;;3.47;;
1308;SDS011;647;48.840;9.314;2022-10-20T13:48:14;59.60;;;3.93;;
1308;SDS011;647;48.840;9.314;2022-10-20T13:50:47;58.50;;;3.27;;
1308;SDS011;647;48.840;9.314;2022-10-20T13:53:17;59.40;;;4.07;;
1308;SDS011;647;48.840;9.314;2022-10-20T13:55:53;59.57;;;4.03;;
1308;SDS011;647;48.840;9.314;2022-10-20T13:58:21;62.40;;;3.77;;
1308;SDS011;647;48.840;9.314;2022-10-20T14:00:54;59.07;;;3.70;;
1308;SDS011;647;48.840;9.314;2022-10-20T14:03:21;58.20;;;3.03;;
1308;SDS011;647;48.840;9.314;2022-10-20T14:05:51;59.73;;;4.10;;
1308;SDS011;647;48.840;9.314;2022-10-20T14:08:18;61.47;;;4.30;;
1308;SDS011;647;48.840;9.314;2022-10-20T14:10:47;58.97;;;3.83;;
1308;SDS011;647;48.840;9.314;2022-10-20T14:13:15;58.97;;;3.77;;
1308;SDS011;647;48.840;9.314;2022-10-20T14:15:44;58.87;;;3.80;;
1308;SDS011;647;48.840;9.314;2022-10-20T14:18:18;59.57;;;3.93;;
1308;SDS011;647;48.840;9.314;2022-10-20T14:20:54;59.90;;;4.07;;
1308;SDS011;647;48.840;9.314;2022-10-20T14:23:22;59.47;;;4.27;;
1308;SDS011;647;48.840;9.314;2022-10-20T14:25:50;58.77;;;3.33;;
1308;SDS011;647;48.840;9.314;2022-10-20T14:28:19;60.20;;;3.97;;
1308;SDS011;647;48.840;9.314;2022-10-20T14:30:47;59.00;;;3.37;;
1308;SDS011;647;48.840;9.314;2022-10-20T14:33:15;59.13;;;3.33;;
1308;SDS011;647;48.840;9.314;2022-10-20T14:35:42;59.43;;;4.13;;
1308;SDS011;647;48.840;9.314;2022-10-20T14:38:17;58.63;;;3.40;;
1308;SDS011;647;48.840;9.314;2022-10-20T14:40:48;60.07;;;4.20;;
1308;SDS011;647;48.840;9.314;2022-10-20T14:43:16;58.20;;;3.17;;
1308;SDS011;647;48.840;9.314;2022-10-20T14:45:50;58.70;;;3.30;;
1308;SDS011;647;48.840;9.314;2022-10-20T14:48:18;60.03;;;4.30;;
1308;SDS011;647;48.840;9.314;2022-10-20T14:50:46;58.50;;;3.20;;
1308;SDS011;647;48.840;9.314;2022-10-20T14:55:59;58.70;;;3.60;;
1308;SDS011;647;48.840;9.314;2022-10-20T14:58:37;59.43;;;3.77;;
1308;SDS011;647;48.840;9.314;2022-10-20T15:01:23;58.30;;;3.40;;
1308;SDS011;647;48.840;9.314;2022-10-20T15:04:02;61.20;;;4.00;;
1308;SDS011;647;48.840;9.314;2022-10-20T15:06:29;59.13;;;3.47;;
1308;SDS011;647;48.840;9.314;2022-10-20T15:08:57;58.97;;;4.03;;
1308;SDS011;647;48.840;9.314;2022-10-20T15:11:25;58.80;;;3.50;;
1308;SDS011;647;48.840;9.314;2022-10-20T15:13:55;59.70;;;4.33;;
1308;SDS011;647;48.840;9.314;2022-10-20T15:16:30;60.10;;;3.90;;
1308;SDS011;647;48.840;9.314;2022-10-20T15:19:11;60.30;;;4.60;;
1308;SDS011;647;48.840;9.314;2022-10-20T15:21:38;60.10;;;3.60;;
1308;SDS011;647;48.840;9.314;2022-10-20T15:24:05;59.27;;;3.50;;
1308;SDS011;647;48.840;9.314;2022-10-20T15:26:34;60.43;;;4.07;;
1308;SDS011;647;48.840;9.314;2022-10-20T15:29:01;59.70;;;4.57;;
1308;SDS011;647;48.840;9.314;2022-10-20T15:31:28;58.83;;;3.27;;
1308;SDS011;647;48.840;9.314;2022-10-20T15:33:56;58.90;;;3.50;;
1308;SDS011;647;48.840;9.314;2022-10-20T15:36:24;59.30;;;4.33;;
1308;SDS011;647;48.840;9.314;2022-10-20T15:38:54;61.27;;;4.23;;
1308;SDS011;647;48.840;9.314;2022-10-20T15:41:22;59.50;;;3.90;;
1308;SDS011;647;48.840;9.314;2022-10-20T15:43:51;60.17;;;3.67;;
1308;SDS011;647;48.840;9.314;2022-10-20T15:46:19;60.27;;;4.23;;
1308;SDS011;647;48.840;9.314;2022-10-20T15:48:46;59.00;;;3.40;;
1308;SDS011;647;48.840;9.314;2022-10-20T15:51:14;59.10;;;3.90;;
1308;SDS011;647;48.840;9.314;2022-10-20T15:53:42;59.97;;;4.80;;
1308;SDS011;647;48.840;9.314;2022-10-20T15:56:12;59.50;;;3.63;;